Time;durP1;ratioP1;P1;durP2;ratioP2;P2;SDS_P1;SDS_P2;PMS_P1;PMS_P2;Temp;Humidity;BMP_temperature;BMP_pressure;BME280_temperature;BME280_humidity;BME280_pressure;Samples;Min_cycle;Max_cycle;Signal;HPM_P1;HPM_P2
2023/01/23 00:00:58;;;;;;;;;;;3.60;99.90;;;;;;5048414;28;20311;-82
2023/01/23 00:03:25;;;;;;;;;;;3.60;99.90;;;;;;5065804;28;19929;-82
2023/01/23 00:05:58;;;;;;;;;;;3.60;99.90;;;;;;5067872;28;19936;-82
2023/01/23 00:08:25;;;;;;;;;;;3.60;99.90;;;;;;5065030;28;19929;-82
2023/01/23 00:10:52;;;;;;;;;;;3.60;99.90;;;;;;5037951;28;19925;-83
2023/01/23 00:13:19;;;;;;;;;;;3.60;99.90;;;;;;5055747;28;19929;-84
2023/01/23 00:15:46;;;;;;;;;;;3.50;99.90;;;;;;5057257;28;19933;-82
2023/01/23 00:18:15;;;;;;;;;;;3.50;99.90;;;;;;5041546;28;20011;-83
2023/01/23 00:20:42;;;;;;;;;;;3.50;99.90;;;;;;5046838;28;19928;-81
2023/01/23 00:23:10;;;;;;;;;;;3.60;99.90;;;;;;5063460;28;19929;-81
2023/01/23 00:25:37;;;;;;;;;;;3.60;99.90;;;;;;5044413;28;19948;-82
2023/01/23 00:28:04;;;;;;;;;;;3.50;99.90;;;;;;5047511;28;20293;-81
2023/01/23 00:30:32;;;;;;;;;;;3.60;99.90;;;;;;5043013;28;19972;-80
2023/01/23 00:32:59;;;;;;;;;;;3.60;99.90;;;;;;5052819;28;19920;-81
2023/01/23 00:35:27;;;;;;;;;;;3.60;99.90;;;;;;5049702;28;20002;-82
2023/01/23 00:37:54;;;;;;;;;;;3.60;99.90;;;;;;5035979;22;19932;-76
2023/01/23 00:40:21;;;;;;;;;;;3.60;99.90;;;;;;5044866;28;19936;-76
2023/01/23 00:42:48;;;;;;;;;;;3.70;99.90;;;;;;5027301;28;19932;-76
2023/01/23 00:45:16;;;;;;;;;;;3.70;99.90;;;;;;5049996;28;19932;-76
2023/01/23 00:47:43;;;;;;;;;;;3.80;99.90;;;;;;5053689;28;19936;-77
2023/01/23 00:50:10;;;;;;;;;;;3.80;99.90;;;;;;5034592;28;19929;-77
2023/01/23 00:52:38;;;;;;;;;;;3.80;99.90;;;;;;5037070;28;19933;-77
2023/01/23 00:55:06;;;;;;;;;;;3.70;99.90;;;;;;5024293;28;19940;-77
2023/01/23 00:57:33;;;;;;;;;;;3.70;99.90;;;;;;5033479;28;19957;-76
2023/01/23 00:59:59;;;;;;;;;;;3.70;99.90;;;;;;5054301;28;19979;-77
2023/01/23 01:02:26;;;;;;;;;;;3.70;99.90;;;;;;5038340;28;19929;-76
2023/01/23 01:04:53;;;;;;;;;;;3.60;99.90;;;;;;5050676;28;19935;-77
2023/01/23 01:07:22;;;;;;;;;;;3.60;99.90;;;;;;5029448;28;19966;-76
2023/01/23 01:09:50;;;;;;;;;;;3.60;99.90;;;;;;5023591;28;19925;-77
2023/01/23 01:12:18;;;;;;;;;;;3.60;99.90;;;;;;5039160;28;20011;-76
2023/01/23 01:14:45;;;;;;;;;;;3.70;99.90;;;;;;5007851;28;19931;-76
2023/01/23 01:17:14;;;;;;;;;;;3.60;99.90;;;;;;5028429;28;19924;-76
2023/01/23 01:19:41;;;;;;;;;;;3.70;99.90;;;;;;5034702;28;19948;-77
2023/01/23 01:22:08;;;;;;;;;;;3.60;99.90;;;;;;5022096;28;20017;-76
2023/01/23 01:24:34;;;;;;;;;;;3.60;99.90;;;;;;5035859;28;20336;-77
2023/01/23 01:27:03;;;;;;;;;;;3.60;99.90;;;;;;5011506;28;19929;-77
2023/01/23 01:29:29;;;;;;;;;;;3.70;99.90;;;;;;5035344;28;19932;-76
2023/01/23 01:31:56;;;;;;;;;;;3.70;99.90;;;;;;5022777;28;19924;-76
2023/01/23 01:34:23;;;;;;;;;;;3.80;99.90;;;;;;5036694;28;19944;-77
2023/01/23 01:36:50;;;;;;;;;;;3.80;99.90;;;;;;5042117;28;19952;-76
2023/01/23 01:39:17;;;;;;;;;;;3.80;99.90;;;;;;5037179;28;19991;-77
2023/01/23 01:41:43;;;;;;;;;;;3.80;99.90;;;;;;5042278;28;19929;-77
2023/01/23 01:44:14;;;;;;;;;;;3.90;99.90;;;;;;5040021;28;19943;-77
2023/01/23 01:46:41;;;;;;;;;;;3.90;99.90;;;;;;5042332;28;19932;-77
2023/01/23 01:49:09;;;;;;;;;;;3.80;99.90;;;;;;5016503;28;19952;-78
2023/01/23 01:51:40;;;;;;;;;;;3.80;99.90;;;;;;5026066;28;20380;-77
2023/01/23 01:54:09;;;;;;;;;;;3.80;99.90;;;;;;5020363;28;19928;-78
2023/01/23 01:56:38;;;;;;;;;;;3.80;99.90;;;;;;5025607;28;19929;-78
2023/01/23 01:59:05;;;;;;;;;;;3.80;99.90;;;;;;5021743;28;19924;-77
2023/01/23 02:01:33;;;;;;;;;;;3.70;99.90;;;;;;5021691;28;19932;-77
2023/01/23 02:04:04;;;;;;;;;;;3.70;99.90;;;;;;5019423;28;20039;-77
2023/01/23 02:06:31;;;;;;;;;;;4.40;99.90;;;;;;5047096;28;19940;-77
2023/01/23 02:09:02;;;;;;;;;;;3.70;99.90;;;;;;5063909;28;19924;-77
2023/01/23 02:11:29;;;;;;;;;;;3.70;99.90;;;;;;5035092;28;19937;-77
2023/01/23 02:13:56;;;;;;;;;;;3.60;99.90;;;;;;5017558;28;19932;-77
2023/01/23 02:16:26;;;;;;;;;;;3.70;99.90;;;;;;5032099;28;19928;-77
2023/01/23 02:18:57;;;;;;;;;;;3.70;99.90;;;;;;5021215;28;19935;-77
2023/01/23 02:21:24;;;;;;;;;;;3.60;99.90;;;;;;5017768;28;19994;-77
2023/01/23 02:23:56;;;;;;;;;;;3.60;99.90;;;;;;5041033;28;19928;-77
2023/01/23 02:26:28;;;;;;;;;;;3.10;99.90;;;;;;5018025;28;19925;-77
2023/01/23 02:28:56;;;;;;;;;;;3.60;99.90;;;;;;5025623;28;19925;-76
2023/01/23 02:31:26;;;;;;;;;;;3.60;99.90;;;;;;5021925;28;20769;-77
2023/01/23 02:33:54;;;;;;;;;;;3.60;99.90;;;;;;5026939;28;19936;-76
2023/01/23 02:36:22;;;;;;;;;;;3.60;99.90;;;;;;5021815;28;19929;-77
2023/01/23 02:38:53;;;;;;;;;;;3.50;99.90;;;;;;5038115;28;19929;-78
2023/01/23 02:41:22;;;;;;;;;;;3.50;99.90;;;;;;5037951;28;20420;-78
2023/01/23 02:43:52;;;;;;;;;;;3.60;99.90;;;;;;5029255;28;19947;-78
2023/01/23 02:46:19;;;;;;;;;;;3.60;99.90;;;;;;5031298;28;19960;-77
2023/01/23 02:48:46;;;;;;;;;;;3.60;99.90;;;;;;5032775;28;19925;-77
2023/01/23 02:51:13;;;;;;;;;;;3.60;99.90;;;;;;5041767;28;19935;-77
2023/01/23 02:53:41;;;;;;;;;;;3.50;99.90;;;;;;5019295;28;20393;-77
2023/01/23 02:56:08;;;;;;;;;;;3.50;99.90;;;;;;5026357;28;19925;-76
2023/01/23 03:01:20;;;;;;;;;;;3.40;99.90;;;;;;5048907;28;19932;-77
2023/01/23 03:03:50;;;;;;;;;;;3.30;99.90;;;;;;5016888;28;19951;-77
2023/01/23 03:06:17;;;;;;;;;;;3.10;99.90;;;;;;5018693;28;20227;-77
2023/01/23 03:08:48;;;;;;;;;;;3.10;99.90;;;;;;5037306;28;19929;-77
2023/01/23 03:11:15;;;;;;;;;;;3.00;99.90;;;;;;5019632;28;19936;-76
2023/01/23 03:13:42;;;;;;;;;;;2.90;99.90;;;;;;5019914;28;19937;-77
2023/01/23 03:16:09;;;;;;;;;;;2.80;99.90;;;;;;5042175;28;19933;-77
2023/01/23 03:18:37;;;;;;;;;;;2.70;99.90;;;;;;5020024;28;19932;-76
2023/01/23 03:21:04;;;;;;;;;;;2.70;99.90;;;;;;5019414;28;19935;-77
2023/01/23 03:23:31;;;;;;;;;;;2.60;99.90;;;;;;5035044;28;19929;-77
2023/01/23 03:25:58;;;;;;;;;;;2.60;99.90;;;;;;5024386;28;19928;-77
2023/01/23 03:31:14;;;;;;;;;;;2.70;99.90;;;;;;5042846;28;20057;-77
2023/01/23 03:33:43;;;;;;;;;;;2.70;99.90;;;;;;5020356;28;19932;-77
2023/01/23 03:36:11;;;;;;;;;;;2.80;99.90;;;;;;5016646;28;19932;-77
2023/01/23 03:41:23;;;;;;;;;;;2.80;99.90;;;;;;5025712;28;19924;-77
2023/01/23 03:41:26;;;;;;;;;;;2.80;99.90;;;;;;5029338;28;19925;-77
2023/01/23 03:43:55;;;;;;;;;;;2.90;99.90;;;;;;5036202;28;20016;-77
2023/01/23 03:46:23;;;;;;;;;;;3.00;99.90;;;;;;5037216;28;20298;-77
2023/01/23 03:51:33;;;;;;;;;;;3.00;99.90;;;;;;5502282;22;19928;-77
2023/01/23 03:54:01;;;;;;;;;;;3.00;99.90;;;;;;5065562;28;20031;-77
2023/01/23 03:56:27;;;;;;;;;;;3.10;99.90;;;;;;5068200;28;19936;-77
2023/01/23 03:58:56;;;;;;;;;;;3.10;99.90;;;;;;5075753;28;20011;-77
2023/01/23 04:01:23;;;;;;;;;;;3.10;99.90;;;;;;5056585;28;19925;-77
2023/01/23 04:03:52;;;;;;;;;;;3.10;99.90;;;;;;5057979;28;20382;-77
2023/01/23 04:06:19;;;;;;;;;;;3.20;99.90;;;;;;5063270;28;20052;-77
2023/01/23 04:08:48;;;;;;;;;;;3.20;99.90;;;;;;5059106;28;20385;-77
2023/01/23 04:11:14;;;;;;;;;;;3.20;99.90;;;;;;5058262;28;19929;-77
2023/01/23 04:13:41;;;;;;;;;;;3.20;99.90;;;;;;5062520;28;19959;-77
2023/01/23 04:16:08;;;;;;;;;;;3.30;99.90;;;;;;5060873;28;20015;-77
2023/01/23 04:18:35;;;;;;;;;;;3.30;99.90;;;;;;5054531;28;19925;-77
2023/01/23 04:21:04;;;;;;;;;;;3.30;99.90;;;;;;5056878;28;19955;-77
2023/01/23 04:23:30;;;;;;;;;;;3.40;99.90;;;;;;5058759;28;19928;-77
2023/01/23 04:25:57;;;;;;;;;;;3.40;99.90;;;;;;5059801;28;19928;-77
2023/01/23 04:28:24;;;;;;;;;;;3.50;99.90;;;;;;5056033;28;20035;-77
2023/01/23 04:30:51;;;;;;;;;;;3.50;99.90;;;;;;5043782;28;20035;-77
2023/01/23 04:33:27;;;;;;;;;;;3.50;99.90;;;;;;5060466;28;19925;-77
2023/01/23 04:35:55;;;;;;;;;;;3.50;99.90;;;;;;5063518;28;20034;-77
2023/01/23 04:38:25;;;;;;;;;;;3.50;99.90;;;;;;5058117;28;19936;-78
2023/01/23 04:40:53;;;;;;;;;;;3.60;99.90;;;;;;5051786;28;19929;-77
2023/01/23 04:43:20;;;;;;;;;;;3.50;99.90;;;;;;5055086;28;19932;-78
2023/01/23 04:45:50;;;;;;;;;;;3.50;99.90;;;;;;5067474;28;19932;-78
2023/01/23 04:48:37;;;;;;;;;;;3.50;99.90;;;;;;5068302;28;19935;-79
2023/01/23 04:51:04;;;;;;;;;;;4.50;99.90;;;;;;5057750;28;20363;-78
2023/01/23 04:53:32;;;;;;;;;;;3.30;99.90;;;;;;5057832;28;19928;-78
2023/01/23 04:56:01;;;;;;;;;;;3.30;99.90;;;;;;5052186;28;20293;-78
2023/01/23 04:58:28;;;;;;;;;;;3.40;99.90;;;;;;5057106;28;20047;-78
2023/01/23 05:01:01;;;;;;;;;;;3.30;99.90;;;;;;5061090;28;19932;-78
2023/01/23 05:03:29;;;;;;;;;;;3.40;99.90;;;;;;5056114;28;19933;-78
2023/01/23 05:05:56;;;;;;;;;;;3.30;99.90;;;;;;5066532;28;19935;-78
2023/01/23 05:08:23;;;;;;;;;;;3.30;99.90;;;;;;5064667;28;19952;-78
2023/01/23 05:11:03;;;;;;;;;;;3.30;99.90;;;;;;5055118;28;20469;-78
2023/01/23 05:13:30;;;;;;;;;;;3.30;99.90;;;;;;5047882;28;19933;-77
2023/01/23 05:15:57;;;;;;;;;;;3.30;99.90;;;;;;5057003;28;19959;-78
2023/01/23 05:18:24;;;;;;;;;;;3.30;99.90;;;;;;5041111;28;19964;-78
2023/01/23 05:20:52;;;;;;;;;;;3.30;99.90;;;;;;5046560;28;19929;-77
2023/01/23 05:23:20;;;;;;;;;;;3.30;99.90;;;;;;5073465;28;20240;-78
2023/01/23 05:25:50;;;;;;;;;;;3.30;99.90;;;;;;5051670;28;19929;-78
2023/01/23 05:28:18;;;;;;;;;;;3.20;99.90;;;;;;5053339;28;19931;-78
2023/01/23 05:30:49;;;;;;;;;;;3.30;99.90;;;;;;5051689;28;19928;-78
2023/01/23 05:33:32;;;;;;;;;;;3.30;99.90;;;;;;5050409;28;19990;-78
2023/01/23 05:35:59;;;;;;;;;;;3.30;99.90;;;;;;5047788;28;19931;-78
2023/01/23 05:38:26;;;;;;;;;;;3.30;99.90;;;;;;5054051;28;20019;-78
2023/01/23 05:40:54;;;;;;;;;;;3.20;99.90;;;;;;5055635;28;20401;-78
2023/01/23 05:43:31;;;;;;;;;;;3.20;99.90;;;;;;5059204;28;19943;-78
2023/01/23 05:46:25;;;;;;;;;;;3.20;99.90;;;;;;5061497;28;19936;-78
2023/01/23 05:48:52;;;;;;;;;;;3.30;99.90;;;;;;5061575;28;19937;-78
2023/01/23 05:51:21;;;;;;;;;;;3.30;99.90;;;;;;5059453;28;19935;-78
2023/01/23 05:53:48;;;;;;;;;;;3.30;99.90;;;;;;5051306;28;20041;-79
2023/01/23 05:56:17;;;;;;;;;;;3.40;99.90;;;;;;5053342;28;19924;-78
2023/01/23 05:59:09;;;;;;;;;;;3.40;99.90;;;;;;5054233;28;19935;-78
2023/01/23 06:01:47;;;;;;;;;;;3.40;99.90;;;;;;5048615;28;19931;-79
2023/01/23 06:04:49;;;;;;;;;;;3.40;99.90;;;;;;5044882;28;19929;-79
2023/01/23 06:07:23;;;;;;;;;;;3.30;99.90;;;;;;5051831;28;19998;-79
2023/01/23 06:09:52;;;;;;;;;;;3.30;99.90;;;;;;5052339;28;19960;-78
2023/01/23 06:12:19;;;;;;;;;;;3.40;99.90;;;;;;5056039;28;19947;-79
2023/01/23 06:14:48;;;;;;;;;;;3.40;99.90;;;;;;5058925;28;19925;-79
2023/01/23 06:17:15;;;;;;;;;;;3.40;99.90;;;;;;5041603;28;20431;-79
2023/01/23 06:19:42;;;;;;;;;;;3.40;99.90;;;;;;5054395;28;19936;-79
2023/01/23 06:22:10;;;;;;;;;;;3.40;99.90;;;;;;5054216;28;20046;-78
2023/01/23 06:24:54;;;;;;;;;;;3.40;99.90;;;;;;5051849;28;20130;-77
2023/01/23 06:27:21;;;;;;;;;;;3.30;99.90;;;;;;5049402;28;20024;-77
2023/01/23 06:29:49;;;;;;;;;;;3.30;99.90;;;;;;5050910;28;19929;-78
2023/01/23 06:32:16;;;;;;;;;;;3.30;99.90;;;;;;5050910;28;19928;-77
2023/01/23 06:34:43;;;;;;;;;;;3.30;99.90;;;;;;5062116;28;19939;-78
2023/01/23 06:37:10;;;;;;;;;;;3.20;99.90;;;;;;5063824;28;19928;-78
2023/01/23 06:39:37;;;;;;;;;;;3.30;99.90;;;;;;5065096;28;19932;-78
2023/01/23 06:42:08;;;;;;;;;;;3.30;99.90;;;;;;5054273;28;19931;-78
2023/01/23 06:44:38;;;;;;;;;;;3.40;99.90;;;;;;5058718;28;19935;-78
2023/01/23 06:47:07;;;;;;;;;;;3.30;99.90;;;;;;5043726;28;20488;-78
2023/01/23 06:49:34;;;;;;;;;;;3.40;99.90;;;;;;5061870;28;20485;-78
2023/01/23 06:52:00;;;;;;;;;;;3.40;99.90;;;;;;5056821;28;20101;-78
2023/01/23 06:54:28;;;;;;;;;;;3.40;99.90;;;;;;5056024;28;19924;-78
2023/01/23 06:57:01;;;;;;;;;;;3.40;99.90;;;;;;5057853;28;19936;-77
2023/01/23 07:02:04;;;;;;;;;;;3.30;99.90;;;;;;5073297;28;19928;-82
2023/01/23 07:04:46;;;;;;;;;;;3.40;99.90;;;;;;5058931;28;20264;-83
2023/01/23 07:07:14;;;;;;;;;;;3.40;99.90;;;;;;5149468;22;19924;-79
2023/01/23 07:09:42;;;;;;;;;;;3.30;99.90;;;;;;5029894;28;20797;-78
2023/01/23 07:12:20;;;;;;;;;;;3.40;99.90;;;;;;5028247;28;19929;-78
2023/01/23 07:14:47;;;;;;;;;;;3.40;99.90;;;;;;5038785;28;19929;-78
2023/01/23 07:17:18;;;;;;;;;;;3.40;99.90;;;;;;5024984;28;19925;-78
2023/01/23 07:23:15;;;;;;;;;;;3.50;99.90;;;;;;5019755;28;19944;-78
2023/01/23 07:25:43;;;;;;;;;;;3.50;99.90;;;;;;5025183;28;19959;-78
2023/01/23 07:28:09;;;;;;;;;;;3.50;99.90;;;;;;5030258;28;19929;-78
2023/01/23 07:30:36;;;;;;;;;;;3.60;99.90;;;;;;5029871;28;19928;-78
2023/01/23 07:33:03;;;;;;;;;;;3.60;99.90;;;;;;5031709;28;20412;-78
2023/01/23 07:35:30;;;;;;;;;;;3.60;99.90;;;;;;5030738;28;19929;-78
2023/01/23 07:37:57;;;;;;;;;;;3.70;99.90;;;;;;5032055;28;19948;-79
2023/01/23 07:40:25;;;;;;;;;;;3.70;99.90;;;;;;5038624;28;19929;-78
2023/01/23 07:42:52;;;;;;;;;;;3.70;99.90;;;;;;5050326;28;19956;-79
2023/01/23 07:45:19;;;;;;;;;;;3.70;99.90;;;;;;5029759;28;19929;-78
2023/01/23 07:47:46;;;;;;;;;;;3.70;99.90;;;;;;5035856;28;20317;-79
2023/01/23 07:50:13;;;;;;;;;;;3.80;99.90;;;;;;5033515;28;19971;-79
2023/01/23 07:52:40;;;;;;;;;;;3.80;99.90;;;;;;5040236;28;19929;-78
2023/01/23 07:55:07;;;;;;;;;;;3.90;99.90;;;;;;5050993;28;19925;-77
2023/01/23 07:57:35;;;;;;;;;;;3.90;99.90;;;;;;5032964;28;19929;-77
2023/01/23 08:00:03;;;;;;;;;;;3.90;99.90;;;;;;5031431;28;19937;-77
2023/01/23 08:02:39;;;;;;;;;;;3.80;99.90;;;;;;5038795;28;19994;-79
2023/01/23 08:05:06;;;;;;;;;;;3.90;99.90;;;;;;5059921;28;19929;-77
2023/01/23 08:07:33;;;;;;;;;;;3.90;99.90;;;;;;5029792;28;19939;-77
2023/01/23 08:10:00;;;;;;;;;;;3.90;99.90;;;;;;5031492;28;19935;-78
2023/01/23 08:12:27;;;;;;;;;;;3.90;99.90;;;;;;5032318;28;19938;-78
2023/01/23 08:14:56;;;;;;;;;;;3.90;99.90;;;;;;5030800;28;20028;-77
2023/01/23 08:17:22;;;;;;;;;;;3.80;99.90;;;;;;5029574;28;19933;-78
2023/01/23 08:19:49;;;;;;;;;;;3.90;99.90;;;;;;5030955;28;19925;-78
2023/01/23 08:22:16;;;;;;;;;;;3.90;99.90;;;;;;5031360;28;19933;-78
2023/01/23 08:24:42;;;;;;;;;;;3.90;99.90;;;;;;5030674;28;19929;-77
2023/01/23 08:27:09;;;;;;;;;;;3.90;99.90;;;;;;5029035;28;19971;-77
2023/01/23 08:29:36;;;;;;;;;;;4.00;99.90;;;;;;5030093;28;19925;-77
2023/01/23 08:32:04;;;;;;;;;;;4.10;99.90;;;;;;5036064;28;19987;-78
2023/01/23 08:34:32;;;;;;;;;;;4.10;99.90;;;;;;5036886;28;20401;-77
2023/01/23 08:36:58;;;;;;;;;;;4.10;99.90;;;;;;5035285;28;19929;-78
2023/01/23 08:39:25;;;;;;;;;;;4.10;99.90;;;;;;5037739;28;19929;-78
2023/01/23 08:41:52;;;;;;;;;;;4.10;99.90;;;;;;5046218;28;19940;-78
2023/01/23 08:44:19;;;;;;;;;;;4.20;99.90;;;;;;5032140;28;19936;-78
2023/01/23 08:46:46;;;;;;;;;;;4.20;99.90;;;;;;5033363;28;20394;-78
2023/01/23 08:49:14;;;;;;;;;;;4.30;99.90;;;;;;5027319;28;19990;-78
2023/01/23 08:51:41;;;;;;;;;;;4.40;99.90;;;;;;5030173;28;19929;-78
2023/01/23 08:54:07;;;;;;;;;;;4.50;99.90;;;;;;5030783;28;19929;-78
2023/01/23 08:56:34;;;;;;;;;;;4.50;99.90;;;;;;5030798;28;20002;-78
2023/01/23 08:59:03;;;;;;;;;;;4.50;99.90;;;;;;5030269;28;19929;-78
2023/01/23 09:01:30;;;;;;;;;;;4.50;99.90;;;;;;5030078;28;19972;-78
2023/01/23 09:03:57;;;;;;;;;;;4.50;99.90;;;;;;5026627;28;19925;-78
2023/01/23 09:06:25;;;;;;;;;;;4.40;99.90;;;;;;5030297;28;19949;-78
2023/01/23 09:08:52;;;;;;;;;;;4.40;99.90;;;;;;5042525;28;19992;-77
2023/01/23 09:11:18;;;;;;;;;;;4.30;99.90;;;;;;5050749;28;19983;-76
2023/01/23 09:13:45;;;;;;;;;;;4.30;99.90;;;;;;5030183;28;19936;-77
2023/01/23 09:16:12;;;;;;;;;;;4.30;99.90;;;;;;5030279;28;19928;-77
2023/01/23 09:18:39;;;;;;;;;;;4.30;99.90;;;;;;5029072;28;19955;-77
2023/01/23 09:21:06;;;;;;;;;;;4.40;99.90;;;;;;5029521;28;19937;-77
2023/01/23 09:23:34;;;;;;;;;;;4.50;99.90;;;;;;5029126;28;19987;-77
2023/01/23 09:26:05;;;;;;;;;;;4.50;99.90;;;;;;5029663;28;19929;-78
2023/01/23 09:28:32;;;;;;;;;;;4.50;99.90;;;;;;5027226;28;20036;-78
2023/01/23 09:31:02;;;;;;;;;;;4.50;99.90;;;;;;5028643;28;19964;-78
2023/01/23 09:33:28;;;;;;;;;;;4.40;99.90;;;;;;5027591;28;19936;-78
2023/01/23 09:35:56;;;;;;;;;;;4.50;99.90;;;;;;5028951;28;19925;-78
2023/01/23 09:38:23;;;;;;;;;;;4.50;99.90;;;;;;5043950;28;19925;-77
2023/01/23 09:40:52;;;;;;;;;;;4.60;99.90;;;;;;5038545;28;19928;-77
2023/01/23 09:43:22;;;;;;;;;;;4.70;99.90;;;;;;5027191;28;19929;-77
2023/01/23 09:45:56;;;;;;;;;;;4.80;99.90;;;;;;5023510;28;19929;-78
2023/01/23 09:48:27;;;;;;;;;;;4.80;99.90;;;;;;5023117;28;20135;-77
2023/01/23 09:50:56;;;;;;;;;;;4.90;99.90;;;;;;5032012;28;19979;-77
2023/01/23 09:53:25;;;;;;;;;;;4.90;99.90;;;;;;5030422;28;20056;-78
2023/01/23 09:55:58;;;;;;;;;;;4.90;99.90;;;;;;5030953;28;19929;-78
2023/01/23 09:58:27;;;;;;;;;;;4.90;99.90;;;;;;5033064;28;20422;-77
2023/01/23 10:00:54;;;;;;;;;;;4.90;99.90;;;;;;5032521;28;19933;-77
2023/01/23 10:03:23;;;;;;;;;;;4.90;99.90;;;;;;5027254;28;19932;-78
2023/01/23 10:05:55;;;;;;;;;;;5.00;99.90;;;;;;5028279;28;20449;-77
2023/01/23 10:08:25;;;;;;;;;;;5.00;99.90;;;;;;5028398;28;19925;-77
2023/01/23 10:10:56;;;;;;;;;;;5.00;99.90;;;;;;5029022;28;19933;-77
2023/01/23 10:13:30;;;;;;;;;;;5.10;99.90;;;;;;5029707;28;19936;-77
2023/01/23 10:16:04;;;;;;;;;;;5.10;99.90;;;;;;5026835;28;19940;-78
2023/01/23 10:18:33;;;;;;;;;;;5.20;99.90;;;;;;5042812;28;19940;-77
2023/01/23 10:21:07;;;;;;;;;;;5.10;99.90;;;;;;5042779;28;20306;-78
2023/01/23 10:23:41;;;;;;;;;;;5.00;99.90;;;;;;5027049;28;20634;-78
2023/01/23 10:26:11;;;;;;;;;;;5.10;99.90;;;;;;5064039;28;20028;-78
2023/01/23 10:28:39;;;;;;;;;;;5.00;99.90;;;;;;5037978;28;19932;-77
2023/01/23 10:31:08;;;;;;;;;;;5.10;99.90;;;;;;5028213;28;20001;-78
2023/01/23 10:33:38;;;;;;;;;;;5.20;99.90;;;;;;5029257;28;20298;-78
2023/01/23 10:36:11;;;;;;;;;;;5.20;99.90;;;;;;5029498;28;19941;-78
2023/01/23 10:38:45;;;;;;;;;;;5.30;99.90;;;;;;5028853;28;19929;-78
2023/01/23 10:41:13;;;;;;;;;;;5.50;99.90;;;;;;5029301;28;19983;-78
2023/01/23 10:43:40;;;;;;;;;;;5.50;99.90;;;;;;5032817;28;19936;-77
2023/01/23 10:46:12;;;;;;;;;;;5.60;99.90;;;;;;5028653;28;19937;-77
2023/01/23 10:48:40;;;;;;;;;;;5.60;99.90;;;;;;5025807;28;19929;-77
2023/01/23 10:51:26;;;;;;;;;;;5.60;99.90;;;;;;5023525;28;19952;-78
2023/01/23 10:54:03;;;;;;;;;;;5.60;99.90;;;;;;5043623;28;19925;-79
2023/01/23 10:56:31;;;;;;;;;;;5.70;99.90;;;;;;5030104;28;19929;-79
2023/01/23 10:58:58;;;;;;;;;;;5.70;99.90;;;;;;5028222;28;19936;-79
2023/01/23 11:01:26;;;;;;;;;;;5.70;99.90;;;;;;5028802;28;19933;-79
2023/01/23 11:03:53;;;;;;;;;;;5.70;99.90;;;;;;5030174;28;19929;-79
2023/01/23 11:06:24;;;;;;;;;;;5.70;99.90;;;;;;5026241;28;19944;-79
2023/01/23 11:08:55;;;;;;;;;;;5.70;99.90;;;;;;5027374;28;20008;-79
2023/01/23 11:11:23;;;;;;;;;;;5.70;99.90;;;;;;5032492;28;20433;-78
2023/01/23 11:14:01;;;;;;;;;;;5.70;99.90;;;;;;5027328;28;19929;-79
2023/01/23 11:16:28;;;;;;;;;;;5.70;99.90;;;;;;5026148;28;19929;-78
2023/01/23 11:19:02;;;;;;;;;;;5.70;99.90;;;;;;5025627;28;19940;-78
2023/01/23 11:21:32;;;;;;;;;;;5.70;99.90;;;;;;5026167;28;19933;-78
2023/01/23 11:24:09;;;;;;;;;;;5.80;99.90;;;;;;5026717;28;19945;-78
2023/01/23 11:26:37;;;;;;;;;;;5.90;99.90;;;;;;5026544;28;19929;-78
2023/01/23 11:29:18;;;;;;;;;;;5.80;99.90;;;;;;5024807;28;19929;-78
2023/01/23 11:31:46;;;;;;;;;;;5.80;99.90;;;;;;5025037;28;19929;-78
2023/01/23 11:34:13;;;;;;;;;;;5.80;99.90;;;;;;5029684;28;19929;-78
2023/01/23 11:36:43;;;;;;;;;;;5.90;99.90;;;;;;5035886;28;19929;-78
2023/01/23 11:39:16;;;;;;;;;;;5.80;99.90;;;;;;5028098;28;19941;-78
2023/01/23 11:41:45;;;;;;;;;;;5.80;99.90;;;;;;5054888;28;19912;-79
2023/01/23 11:44:15;;;;;;;;;;;5.80;99.90;;;;;;5042539;28;19983;-78
2023/01/23 11:46:53;;;;;;;;;;;5.80;99.90;;;;;;5027900;28;19995;-78
2023/01/23 11:49:26;;;;;;;;;;;5.70;99.90;;;;;;5042130;28;19996;-77
2023/01/23 11:51:58;;;;;;;;;;;5.70;99.90;;;;;;5027589;28;19929;-79
2023/01/23 11:54:34;;;;;;;;;;;5.60;99.90;;;;;;5030117;28;19929;-77
2023/01/23 11:57:09;;;;;;;;;;;5.50;99.90;;;;;;5042978;28;19933;-78
2023/01/23 11:59:51;;;;;;;;;;;5.60;99.90;;;;;;5027274;28;19933;-78
2023/01/23 12:02:27;;;;;;;;;;;5.60;99.90;;;;;;5023992;28;19932;-78
2023/01/23 12:05:05;;;;;;;;;;;5.60;99.90;;;;;;5022088;28;19932;-78
2023/01/23 12:07:35;;;;;;;;;;;5.60;99.90;;;;;;5039862;28;20043;-78
2023/01/23 12:10:05;;;;;;;;;;;5.80;99.90;;;;;;5027568;28;20432;-78
2023/01/23 12:12:51;;;;;;;;;;;5.90;99.90;;;;;;5042419;28;19928;-77
2023/01/23 12:15:26;;;;;;;;;;;6.00;99.90;;;;;;5031360;28;20337;-79
2023/01/23 12:17:57;;;;;;;;;;;6.10;99.90;;;;;;5032483;28;19982;-79
2023/01/23 12:20:27;;;;;;;;;;;6.10;99.90;;;;;;5026971;28;19925;-79
2023/01/23 12:23:01;;;;;;;;;;;6.10;99.90;;;;;;5031447;28;19925;-78
2023/01/23 12:25:31;;;;;;;;;;;6.10;99.90;;;;;;5029431;28;19987;-79
2023/01/23 12:28:02;;;;;;;;;;;6.10;99.90;;;;;;5030877;28;19952;-79
2023/01/23 12:31:00;;;;;;;;;;;6.10;99.90;;;;;;5043294;28;19936;-78
2023/01/23 12:33:44;;;;;;;;;;;6.00;99.90;;;;;;5045855;28;19925;-77
2023/01/23 12:36:21;;;;;;;;;;;6.00;99.90;;;;;;5045282;28;19992;-77
2023/01/23 12:38:53;;;;;;;;;;;5.90;99.90;;;;;;5056679;28;19952;-77
2023/01/23 12:41:25;;;;;;;;;;;5.90;99.90;;;;;;5045037;28;19929;-76
2023/01/23 12:43:57;;;;;;;;;;;5.90;99.90;;;;;;5045749;28;19925;-76
2023/01/23 12:46:27;;;;;;;;;;;5.80;99.90;;;;;;5060354;28;19925;-77
2023/01/23 12:48:54;;;;;;;;;;;;;;;;;;5061790;28;19929;-78
2023/01/23 12:51:26;;;;;;;;;;;5.80;99.90;;;;;;5040663;28;19925;-80
2023/01/23 12:53:56;;;;;;;;;;;5.80;99.90;;;;;;5048489;28;19933;-76
2023/01/23 12:56:25;;;;;;;;;;;5.80;99.90;;;;;;5029658;28;20745;-76
2023/01/23 12:58:56;;;;;;;;;;;5.70;99.90;;;;;;5028297;28;19936;-77
2023/01/23 13:01:27;;;;;;;;;;;5.70;99.90;;;;;;5030386;28;19929;-76
2023/01/23 13:03:58;;;;;;;;;;;5.70;99.90;;;;;;5044303;28;19932;-74
2023/01/23 13:06:33;;;;;;;;;;;5.70;99.90;;;;;;5027664;28;19925;-75
2023/01/23 13:09:03;;;;;;;;;;;5.80;99.90;;;;;;5044678;28;19978;-75
2023/01/23 13:11:40;;;;;;;;;;;5.80;99.90;;;;;;5048809;28;19940;-75
2023/01/23 13:14:16;;;;;;;;;;;5.80;99.90;;;;;;5026737;28;20012;-75
2023/01/23 13:16:46;;;;;;;;;;;5.80;99.90;;;;;;5027820;28;19991;-75
2023/01/23 13:22:12;;;;;;;;;;;5.80;99.90;;;;;;5022128;28;19925;-76
2023/01/23 13:27:40;;;;;;;;;;;5.80;99.90;;;;;;5026517;28;19928;-76
2023/01/23 13:30:30;;;;;;;;;;;5.70;99.90;;;;;;5028228;28;19960;-77
2023/01/23 13:33:02;;;;;;;;;;;5.70;99.90;;;;;;5028445;28;19925;-76
2023/01/23 13:35:48;;;;;;;;;;;5.70;99.90;;;;;;5029060;28;20016;-76
2023/01/23 13:38:36;;;;;;;;;;;5.60;99.90;;;;;;5035046;28;19936;-77
2023/01/23 13:41:21;;;;;;;;;;;5.60;99.90;;;;;;5030486;28;20381;-77
2023/01/23 13:43:53;;;;;;;;;;;5.60;99.90;;;;;;5032261;28;19940;-76
2023/01/23 13:46:26;;;;;;;;;;;5.50;99.90;;;;;;5030572;28;19929;-77
2023/01/23 13:51:47;;;;;;;;;;;5.50;99.90;;;;;;5041283;28;20034;-75
2023/01/23 13:57:05;;;;;;;;;;;5.50;99.90;;;;;;5027583;28;19929;-79
2023/01/23 13:59:34;;;;;;;;;;;5.40;99.90;;;;;;5024896;28;20576;-77
2023/01/23 14:05:14;;;;;;;;;;;5.50;99.90;;;;;;5030132;28;19932;-76
2023/01/23 14:07:44;;;;;;;;;;;5.50;99.90;;;;;;5028934;28;19940;-76
2023/01/23 14:10:21;;;;;;;;;;;5.40;99.90;;;;;;5030708;28;19957;-76
2023/01/23 14:12:48;;;;;;;;;;;5.50;99.90;;;;;;5033239;28;19936;-76
2023/01/23 14:18:04;;;;;;;;;;;5.50;99.90;;;;;;5025489;28;19925;-77
2023/01/23 14:20:31;;;;;;;;;;;5.50;99.90;;;;;;5029002;28;19928;-78
2023/01/23 14:22:59;;;;;;;;;;;5.50;99.90;;;;;;5042945;28;20301;-77
2023/01/23 14:25:27;;;;;;;;;;;5.50;99.90;;;;;;5027342;28;20436;-76
2023/01/23 14:28:02;;;;;;;;;;;5.60;99.90;;;;;;5026527;28;19929;-76
2023/01/23 14:30:30;;;;;;;;;;;5.60;99.90;;;;;;5026713;28;19925;-78
2023/01/23 14:32:58;;;;;;;;;;;5.50;99.90;;;;;;5027139;28;19937;-78
2023/01/23 14:35:26;;;;;;;;;;;5.40;99.90;;;;;;5028051;28;20032;-77
2023/01/23 14:37:53;;;;;;;;;;;5.30;99.90;;;;;;5028828;28;19932;-76
2023/01/23 14:40:21;;;;;;;;;;;5.20;99.90;;;;;;5028479;28;19929;-76
2023/01/23 14:42:53;;;;;;;;;;;5.20;99.90;;;;;;5038465;28;20310;-76
2023/01/23 14:45:19;;;;;;;;;;;5.30;99.90;;;;;;5029942;28;19983;-76
2023/01/23 14:47:46;;;;;;;;;;;5.30;99.90;;;;;;5029831;28;19925;-76
2023/01/23 14:50:16;;;;;;;;;;;5.30;99.90;;;;;;5028727;28;19944;-77
2023/01/23 14:52:43;;;;;;;;;;;5.30;99.90;;;;;;5028699;28;19952;-76
2023/01/23 14:55:20;;;;;;;;;;;5.30;99.90;;;;;;5028945;28;20016;-77
2023/01/23 14:57:47;;;;;;;;;;;5.30;99.90;;;;;;5023855;28;19929;-76
2023/01/23 15:00:19;;;;;;;;;;;5.30;99.90;;;;;;5026845;28;20413;-76
2023/01/23 15:02:49;;;;;;;;;;;5.30;99.90;;;;;;5024500;28;19929;-76
2023/01/23 15:05:18;;;;;;;;;;;5.30;99.90;;;;;;5027899;28;19929;-76
2023/01/23 15:07:46;;;;;;;;;;;5.20;99.90;;;;;;5023672;28;19986;-76
2023/01/23 15:10:14;;;;;;;;;;;5.10;99.90;;;;;;5022351;28;19983;-76
2023/01/23 15:12:47;;;;;;;;;;;5.00;99.90;;;;;;5023826;28;19938;-76
2023/01/23 15:15:17;;;;;;;;;;;5.00;99.90;;;;;;5024489;28;19925;-77
2023/01/23 15:17:45;;;;;;;;;;;5.00;99.90;;;;;;5026200;28;19949;-76